createdAt,value
2016-10-16T11:34:14.143Z,22.28
2016-10-16T11:34:39.724Z,22.31
2016-10-16T11:35:05.273Z,22.34
2016-10-16T11:35:30.839Z,22.29
2016-10-16T11:35:56.416Z,22.39
2016-10-16T11:36:21.996Z,22.44
2016-10-16T11:36:47.659Z,22.43
2016-10-16T11:37:13.240Z,22.43
2016-10-16T11:37:38.807Z,22.41
2016-10-16T11:38:04.338Z,22.47
2016-10-16T11:38:29.965Z,22.43
2016-10-16T11:38:55.541Z,22.47
2016-10-16T11:39:21.080Z,22.5
2016-10-16T11:39:46.643Z,22.54
2016-10-16T11:40:12.222Z,22.52
2016-10-16T11:40:37.815Z,22.59
2016-10-16T11:41:03.362Z,22.6
2016-10-16T11:41:28.940Z,22.59
2016-10-16T11:41:54.524Z,22.65
2016-10-16T11:42:20.074Z,22.65
2016-10-16T11:42:45.628Z,22.71
2016-10-16T11:43:11.215Z,22.59
2016-10-16T11:43:36.772Z,22.67
2016-10-16T11:44:02.330Z,22.71
2016-10-16T11:44:27.974Z,22.69
2016-10-16T11:44:53.553Z,22.72
2016-10-16T11:45:19.124Z,22.77
2016-10-16T11:45:44.797Z,22.82
2016-10-16T11:46:10.388Z,22.77
2016-10-16T11:46:35.958Z,22.78
2016-10-16T11:47:01.623Z,22.78
2016-10-16T11:47:27.217Z,22.9
2016-10-16T11:47:52.777Z,22.92
2016-10-16T11:48:18.349Z,22.89
2016-10-16T11:48:43.971Z,22.87
2016-10-16T11:49:09.527Z,22.9
2016-10-16T11:49:35.087Z,22.92
2016-10-16T11:50:00.649Z,22.94
2016-10-16T11:50:26.344Z,22.89
2016-10-16T11:50:51.918Z,22.99
2016-10-16T11:51:17.545Z,22.96
2016-10-16T11:51:43.202Z,23.04
2016-10-16T11:52:08.757Z,23.02
2016-10-16T11:52:34.442Z,23.07
2016-10-16T11:52:59.991Z,23.11
2016-10-16T11:53:25.567Z,23.07
2016-10-16T11:53:51.142Z,23.14
2016-10-16T11:54:16.830Z,23.09
2016-10-16T11:54:42.394Z,23.12
2016-10-16T11:55:07.943Z,23.17
2016-10-16T11:55:33.559Z,23.15
2016-10-16T11:55:59.109Z,23.17
2016-10-16T11:56:24.654Z,23.23
2016-10-16T11:56:50.223Z,23.24
2016-10-16T11:57:15.796Z,23.26
2016-10-16T11:57:41.364Z,23.29
2016-10-16T11:58:07.017Z,23.27
2016-10-16T11:58:32.601Z,23.31
2016-10-16T11:58:58.169Z,23.27
2016-10-16T11:59:23.723Z,23.2
2016-10-16T11:59:49.300Z,23.29
2016-10-16T12:00:14.873Z,23.23
2016-10-16T12:00:40.454Z,23.2
2016-10-16T12:01:06.045Z,23.24
2016-10-16T12:01:31.602Z,23.24
2016-10-16T12:01:57.166Z,23.24
2016-10-16T12:02:22.727Z,23.27
2016-10-16T12:02:48.285Z,23.2
2016-10-16T12:03:13.904Z,23.2
2016-10-16T12:03:39.464Z,23.24
2016-10-16T12:04:05.028Z,23.24
2016-10-16T12:04:30.617Z,23.23
2016-10-16T12:04:56.332Z,23.26
2016-10-16T12:05:21.943Z,23.23
2016-10-16T12:05:47.575Z,23.26
2016-10-16T12:06:13.248Z,23.22
2016-10-16T12:06:38.803Z,23.32
2016-10-16T12:07:04.376Z,23.26
2016-10-16T12:07:30.025Z,23.23
2016-10-16T12:07:55.570Z,23.15
2016-10-16T12:08:21.166Z,23.23
2016-10-16T12:08:46.737Z,23.17
2016-10-16T12:09:12.304Z,23.09
2016-10-16T12:09:37.870Z,23.2
2016-10-16T12:10:03.448Z,23.09
2016-10-16T12:10:29.019Z,23.02
2016-10-16T12:10:54.589Z,23.07
2016-10-16T12:11:20.161Z,23.05
2016-10-16T12:11:45.742Z,22.99
2016-10-16T12:12:11.287Z,22.99
2016-10-16T12:12:36.865Z,22.97
2016-10-16T12:13:02.441Z,23.07
2016-10-16T12:13:28.007Z,23.04
2016-10-16T12:13:53.596Z,23.01
2016-10-16T12:14:19.167Z,22.96
2016-10-16T12:14:44.738Z,22.94
2016-10-16T12:15:10.353Z,23.01
2016-10-16T12:15:35.932Z,22.93
2016-10-16T12:16:01.518Z,22.86
2016-10-16T12:16:27.105Z,22.89
2016-10-16T12:16:52.701Z,22.87
2016-10-16T12:17:18.271Z,22.87
2016-10-16T12:17:43.924Z,22.87
2016-10-16T12:18:09.490Z,22.87
2016-10-16T12:18:35.042Z,22.87
2016-10-16T12:19:00.617Z,22.9
2016-10-16T12:19:26.189Z,22.96
2016-10-16T12:19:51.767Z,22.84
2016-10-16T12:20:17.339Z,22.9
2016-10-16T12:20:42.923Z,22.87
2016-10-16T12:21:08.468Z,22.9
2016-10-16T12:21:34.008Z,22.89
2016-10-16T12:21:59.576Z,22.82
2016-10-16T12:22:25.219Z,22.87
2016-10-16T12:22:50.790Z,22.82
2016-10-16T12:23:16.366Z,22.78
2016-10-16T12:23:41.926Z,22.8
2016-10-16T12:24:07.507Z,22.84
2016-10-16T12:24:33.108Z,22.82
2016-10-16T12:24:58.700Z,22.78
2016-10-16T12:25:24.269Z,22.89
2016-10-16T12:25:49.825Z,22.92
2016-10-16T12:26:15.495Z,22.84
2016-10-16T12:26:41.046Z,22.84
2016-10-16T12:27:06.616Z,22.9
2016-10-16T12:27:32.191Z,22.89
2016-10-16T12:27:57.745Z,22.87
2016-10-16T12:29:06.050Z,22.86
2016-10-16T12:31:21.478Z,22.99
2016-10-16T12:31:47.034Z,22.99
2016-10-16T12:32:12.659Z,22.99
2016-10-16T12:32:38.242Z,23.04
2016-10-16T12:33:03.802Z,22.99
2016-10-16T12:33:29.375Z,23.04
2016-10-16T12:33:54.938Z,23.04
2016-10-16T12:34:20.577Z,23.05
2016-10-16T12:34:46.214Z,23.12
2016-10-16T12:35:11.855Z,23.08
2016-10-16T12:35:37.416Z,23.12
2016-10-16T12:36:02.981Z,23.11
2016-10-16T12:36:28.525Z,23.07
2016-10-16T12:36:54.075Z,23.12
2016-10-16T12:37:19.646Z,23.12
2016-10-16T12:37:45.251Z,23.12
2016-10-16T12:38:10.822Z,23.15
2016-10-16T12:38:36.394Z,23.11
2016-10-16T12:39:02.000Z,23.08
2016-10-16T12:39:27.606Z,23.11
2016-10-16T12:39:53.167Z,23.11
2016-10-16T12:40:56.472Z,23.15
2016-10-16T12:41:22.037Z,23.09
2016-10-16T12:41:47.623Z,23.12
2016-10-16T12:42:13.195Z,23.2
2016-10-16T12:42:38.808Z,23.2
2016-10-16T12:43:04.374Z,23.29
2016-10-16T12:43:29.914Z,23.23
2016-10-16T12:43:55.620Z,23.19
2016-10-16T12:44:21.244Z,23.35
2016-10-16T12:44:46.804Z,23.35
2016-10-16T12:45:12.435Z,23.46
2016-10-16T12:45:38.040Z,23.49
2016-10-16T12:46:03.628Z,23.57
2016-10-16T12:46:29.184Z,23.72
2016-10-16T12:46:54.859Z,23.77
2016-10-16T12:47:20.422Z,23.8
2016-10-16T12:47:45.996Z,23.95
2016-10-16T12:48:11.552Z,24
2016-10-16T12:48:37.109Z,23.97
2016-10-16T12:49:02.665Z,24.1
2016-10-16T12:49:28.257Z,24.13
2016-10-16T12:49:53.805Z,24.17
2016-10-16T12:50:19.379Z,24.19
2016-10-16T12:50:44.939Z,24.2
2016-10-16T12:51:10.526Z,24.22
2016-10-16T12:51:36.095Z,24.38
2016-10-16T12:52:01.698Z,24.29
2016-10-16T12:52:27.273Z,24.41
2016-10-16T12:52:52.844Z,24.53
2016-10-16T12:53:18.449Z,24.47
2016-10-16T12:53:44.001Z,24.52
2016-10-16T12:54:09.564Z,24.52
2016-10-16T12:54:35.124Z,24.59
2016-10-16T12:55:00.721Z,24.64
2016-10-16T12:55:26.305Z,24.59
2016-10-16T12:55:51.877Z,24.64
2016-10-16T12:56:17.476Z,24.61
2016-10-16T12:56:43.024Z,24.67
2016-10-16T12:57:08.581Z,24.61
2016-10-16T12:58:06.720Z,24.67
2016-10-16T12:58:32.273Z,24.63
2016-10-16T12:58:57.837Z,24.59
2016-10-16T12:59:23.417Z,24.69
2016-10-16T12:59:48.986Z,24.69
2016-10-16T13:00:14.557Z,24.71
2016-10-16T13:00:40.105Z,24.71
2016-10-16T13:01:05.652Z,24.77
2016-10-16T13:01:31.245Z,24.85
2016-10-16T13:01:56.821Z,24.87
2016-10-16T13:02:22.370Z,24.85
2016-10-16T13:02:47.980Z,24.94
2016-10-16T13:03:13.565Z,24.91
2016-10-16T13:03:39.117Z,24.98
2016-10-16T13:04:04.677Z,24.98
2016-10-16T13:04:30.258Z,25.01
2016-10-16T13:04:55.838Z,25
2016-10-16T13:05:21.413Z,25.02
2016-10-16T13:05:47.123Z,25.15
2016-10-16T13:06:12.733Z,25.13
2016-10-16T13:06:38.288Z,25.15
2016-10-16T13:07:03.847Z,25.17
2016-10-16T13:07:29.424Z,25.12
2016-10-16T13:07:54.989Z,25.22
2016-10-16T13:08:20.554Z,25.2
2016-10-16T13:08:46.122Z,25.19
2016-10-16T13:09:11.706Z,25.25
2016-10-16T13:09:37.289Z,25.3
2016-10-16T13:10:02.853Z,25.27
2016-10-16T13:10:28.416Z,25.39
2016-10-16T13:10:53.971Z,25.34
2016-10-16T13:11:19.572Z,25.37
2016-10-16T13:11:45.125Z,25.35
2016-10-16T13:12:10.673Z,25.32
2016-10-16T13:12:36.269Z,25.35
2016-10-16T13:13:01.866Z,25.34
2016-10-16T13:13:58.970Z,25.31
2016-10-16T13:14:24.589Z,25.24
2016-10-16T13:14:50.168Z,25.19
2016-10-16T13:15:15.742Z,25.13
2016-10-16T13:15:41.315Z,25.17
2016-10-16T13:16:07.221Z,25.09
2016-10-16T13:16:32.886Z,24.98
2016-10-16T13:16:58.942Z,24.95
2016-10-16T13:17:24.521Z,24.94
2016-10-16T13:17:50.076Z,24.98
2016-10-16T13:18:16.298Z,24.87
2016-10-16T13:18:41.883Z,24.87
2016-10-16T13:19:08.090Z,24.76
2016-10-16T13:19:33.639Z,24.67
2016-10-16T13:19:59.883Z,24.68
2016-10-16T13:20:25.481Z,24.71
2016-10-16T13:20:51.046Z,24.54
2016-10-16T13:21:17.187Z,24.56
2016-10-16T13:21:42.752Z,24.57
2016-10-16T13:22:09.045Z,24.52
2016-10-16T13:22:34.627Z,24.38
2016-10-16T13:23:00.206Z,24.34
2016-10-16T13:23:26.380Z,24.41
2016-10-16T13:23:51.980Z,24.37
2016-10-16T13:24:18.141Z,24.29
2016-10-16T13:24:43.713Z,24.29
2016-10-16T13:25:09.968Z,24.22
2016-10-16T13:25:35.533Z,24.13
2016-10-16T13:26:01.115Z,24.13
2016-10-16T13:26:27.311Z,24.19
2016-10-16T13:26:52.875Z,24.12
2016-10-16T13:27:19.099Z,23.98
2016-10-16T13:27:44.678Z,23.98
2016-10-16T13:28:10.222Z,24.05
2016-10-16T13:28:36.457Z,24
2016-10-16T13:29:02.156Z,23.9
2016-10-16T13:29:30.218Z,23.95
2016-10-16T13:29:56.702Z,23.9
2016-10-16T13:30:22.276Z,23.85
2016-10-16T13:30:47.868Z,23.77
2016-10-16T13:31:13.449Z,23.85
2016-10-16T13:31:38.993Z,23.77
2016-10-16T13:32:04.577Z,23.77
2016-10-16T13:32:57.609Z,23.72
2016-10-16T13:33:23.188Z,23.76
2016-10-16T13:33:48.731Z,23.77
2016-10-16T13:34:14.299Z,23.75
2016-10-16T13:34:39.881Z,23.79
2016-10-16T13:35:05.533Z,23.77
2016-10-16T13:35:31.082Z,23.71
2016-10-16T13:35:56.803Z,23.71
2016-10-16T13:36:22.399Z,23.72
2016-10-16T13:36:47.944Z,23.76
2016-10-16T13:37:13.665Z,23.71
2016-10-16T13:38:06.660Z,23.65
2016-10-16T13:38:32.214Z,23.72
2016-10-16T13:38:57.764Z,23.72
2016-10-16T13:39:23.370Z,23.62
2016-10-16T13:39:48.946Z,23.68
2016-10-16T13:40:14.539Z,23.65
2016-10-16T13:40:40.123Z,23.58
2016-10-16T13:41:05.720Z,23.65
2016-10-16T13:41:31.268Z,23.65
2016-10-16T13:41:56.856Z,23.52
2016-10-16T13:42:22.539Z,23.55
2016-10-16T13:42:48.150Z,23.47
2016-10-16T13:43:13.709Z,23.52
2016-10-16T13:43:39.356Z,23.57
2016-10-16T13:44:04.981Z,23.52
2016-10-16T13:44:30.553Z,23.52
2016-10-16T13:44:56.129Z,23.47
2016-10-16T13:45:21.739Z,23.53
2016-10-16T13:45:47.310Z,23.5
2016-10-16T13:46:12.885Z,23.47
2016-10-16T13:46:38.559Z,23.47
2016-10-16T13:47:04.114Z,23.52
2016-10-16T13:47:29.691Z,23.42
2016-10-16T13:47:55.303Z,23.35
2016-10-16T13:48:20.919Z,23.32
2016-10-16T13:48:46.487Z,23.31
2016-10-16T13:49:12.290Z,23.38
2016-10-16T13:49:37.889Z,23.35
2016-10-16T13:50:03.473Z,23.32
2016-10-16T13:50:29.049Z,23.42
2016-10-16T13:50:54.610Z,23.39
2016-10-16T13:51:20.193Z,23.35
2016-10-16T13:51:45.758Z,23.26
2016-10-16T13:52:11.342Z,23.32
2016-10-16T13:52:37.078Z,23.29
2016-10-16T13:53:02.824Z,23.27
2016-10-16T13:53:28.405Z,23.29
2016-10-16T13:53:53.924Z,23.27
2016-10-16T13:54:19.508Z,23.2
2016-10-16T13:54:45.121Z,23.24
2016-10-16T13:55:43.204Z,23.22
2016-10-16T13:56:08.761Z,23.27
2016-10-16T13:56:34.301Z,23.24
2016-10-16T13:56:59.922Z,23.26
2016-10-16T13:57:25.488Z,23.29
2016-10-16T13:57:51.041Z,23.26
2016-10-16T13:58:16.614Z,23.26
2016-10-16T13:58:42.436Z,23.19
2016-10-16T13:59:07.988Z,23.22
2016-10-16T13:59:33.559Z,23.23
2016-10-16T13:59:59.139Z,23.19
2016-10-16T14:00:24.709Z,23.26
2016-10-16T14:00:50.264Z,23.22
2016-10-16T14:01:15.832Z,23.15
2016-10-16T14:01:41.410Z,23.23
2016-10-16T14:02:07.052Z,23.2
2016-10-16T14:02:32.597Z,23.2
2016-10-16T14:02:58.176Z,23.2
2016-10-16T14:03:23.864Z,23.2
2016-10-16T14:03:49.417Z,23.14
2016-10-16T14:04:15.001Z,23.19
2016-10-16T14:04:40.571Z,23.14
2016-10-16T14:05:06.124Z,23.17
2016-10-16T14:05:31.723Z,23.14
2016-10-16T14:05:57.283Z,23.15
2016-10-16T14:06:22.878Z,23.09
2016-10-16T14:06:48.466Z,23.14
2016-10-16T14:07:14.050Z,23.12
2016-10-16T14:07:39.634Z,23.17
2016-10-16T14:08:05.213Z,23.15
2016-10-16T14:08:31.602Z,23.17
2016-10-16T14:08:57.178Z,23.17
2016-10-16T14:09:22.799Z,23.17
2016-10-16T14:09:48.359Z,23.15
2016-10-16T14:10:13.924Z,23.15
2016-10-16T14:10:39.554Z,23.19
2016-10-16T14:11:05.101Z,23.17
2016-10-16T14:11:30.671Z,23.12
2016-10-16T14:11:56.346Z,23.17
2016-10-16T14:12:21.902Z,23.19
2016-10-16T14:12:47.500Z,23.12
2016-10-16T14:13:13.148Z,23.17
2016-10-16T14:13:38.710Z,23.26
2016-10-16T14:14:04.404Z,23.14
2016-10-16T14:14:29.972Z,23.15
2016-10-16T14:14:55.543Z,23.19
2016-10-16T14:15:21.162Z,23.17
2016-10-16T14:15:46.793Z,23.23
2016-10-16T14:16:12.355Z,23.19
2016-10-16T14:17:05.406Z,23.19
2016-10-16T14:17:30.995Z,23.14
2016-10-16T14:17:56.573Z,23.27
2016-10-16T14:18:22.150Z,23.27
2016-10-16T14:18:47.710Z,23.29
2016-10-16T14:19:13.371Z,23.24
2016-10-16T14:19:38.966Z,23.29
2016-10-16T14:20:04.515Z,23.23
2016-10-16T14:20:30.102Z,23.29
2016-10-16T14:20:55.671Z,23.27
2016-10-16T14:21:21.284Z,23.23
2016-10-16T14:21:46.845Z,23.23
2016-10-16T14:22:12.427Z,23.27
2016-10-16T14:22:38.139Z,23.32
2016-10-16T14:23:03.708Z,23.27
2016-10-16T14:23:29.326Z,23.39
2016-10-16T14:23:54.865Z,23.4
2016-10-16T14:24:20.429Z,23.38
2016-10-16T14:24:45.979Z,23.32
2016-10-16T14:25:11.656Z,23.38
2016-10-16T14:25:37.331Z,23.35
2016-10-16T14:26:03.160Z,23.43
2016-10-16T14:26:28.765Z,23.34
2016-10-16T14:26:54.341Z,23.53
2016-10-16T14:27:19.919Z,23.42
2016-10-16T14:27:45.589Z,23.43
2016-10-16T14:28:11.250Z,23.52
2016-10-16T14:28:36.874Z,23.52
2016-10-16T14:29:02.428Z,23.52
2016-10-16T14:30:05.921Z,23.57
2016-10-16T14:30:31.569Z,23.55
2016-10-16T14:30:57.134Z,23.57
2016-10-16T14:31:22.712Z,23.6
2016-10-16T14:31:48.281Z,23.61
2016-10-16T14:32:13.885Z,23.64
2016-10-16T14:32:39.462Z,23.68
2016-10-16T14:33:05.031Z,23.62
2016-10-16T14:33:30.590Z,23.57
2016-10-16T14:33:56.176Z,23.68
2016-10-16T14:34:21.742Z,23.67
2016-10-16T14:34:47.295Z,23.64
2016-10-16T14:35:12.880Z,23.71
2016-10-16T14:35:38.625Z,23.75
2016-10-16T14:36:04.793Z,23.72
2016-10-16T14:36:30.365Z,23.75
2016-10-16T14:36:55.946Z,23.72
2016-10-16T14:37:21.499Z,23.79
2016-10-16T14:37:47.069Z,23.8
2016-10-16T14:38:13.570Z,23.85
2016-10-16T14:38:39.121Z,23.87
2016-10-16T14:39:04.691Z,23.94
2016-10-16T14:39:30.266Z,23.95
2016-10-16T14:39:55.859Z,24.01
2016-10-16T14:40:21.458Z,23.98
2016-10-16T14:40:47.063Z,24.02
2016-10-16T14:41:12.633Z,24.1
2016-10-16T14:41:38.305Z,24.08
2016-10-16T14:42:03.894Z,24.12
2016-10-16T14:42:29.411Z,24.2
2016-10-16T14:42:54.976Z,24.19
2016-10-16T14:43:20.544Z,24.16
2016-10-16T14:43:46.141Z,24.22
2016-10-16T14:44:11.724Z,24.24
2016-10-16T14:44:37.310Z,24.29
2016-10-16T14:45:02.903Z,24.27
2016-10-16T14:46:06.189Z,24.32
2016-10-16T14:46:31.802Z,24.38
2016-10-16T14:46:57.389Z,24.34
2016-10-16T14:47:22.954Z,24.29
2016-10-16T14:47:48.497Z,24.39
2016-10-16T14:48:14.126Z,24.38
2016-10-16T14:48:39.689Z,24.47
2016-10-16T14:49:05.232Z,24.49
2016-10-16T14:50:08.390Z,24.59
2016-10-16T14:50:33.958Z,24.56
2016-10-16T14:50:59.514Z,24.56
2016-10-16T14:51:25.180Z,24.54
2016-10-16T14:51:50.766Z,24.56
2016-10-16T14:52:16.377Z,24.64
2016-10-16T14:52:41.953Z,24.69
2016-10-16T14:53:07.525Z,24.64
2016-10-16T14:53:33.085Z,24.68
2016-10-16T14:53:59.489Z,24.73
2016-10-16T14:54:25.075Z,24.82
2016-10-16T14:54:50.643Z,24.75
2016-10-16T14:55:16.221Z,24.82
2016-10-16T14:56:04.093Z,24.8
2016-10-16T14:56:29.645Z,24.82
2016-10-16T14:56:55.206Z,24.85
2016-10-16T14:57:20.790Z,24.85
2016-10-16T14:57:46.454Z,24.88
2016-10-16T14:58:12.020Z,24.87
2016-10-16T14:58:37.592Z,24.85
2016-10-16T14:59:03.881Z,24.94
2016-10-16T14:59:29.458Z,24.94
2016-10-16T14:59:55.155Z,24.98
2016-10-16T15:00:20.728Z,24.91
2016-10-16T15:00:46.317Z,24.91
2016-10-16T15:01:11.913Z,24.91
2016-10-16T15:01:37.498Z,24.94
2016-10-16T15:02:03.068Z,24.94
2016-10-16T15:02:28.639Z,24.98
2016-10-16T15:02:54.229Z,25
2016-10-16T15:03:19.859Z,25.05
2016-10-16T15:03:45.432Z,24.98
2016-10-16T15:04:11.979Z,25
2016-10-16T15:04:37.537Z,24.98
2016-10-16T15:05:03.133Z,25.02
2016-10-16T15:05:28.741Z,25.02
2016-10-16T15:05:54.354Z,25
2016-10-16T15:06:19.913Z,25
2016-10-16T15:06:45.564Z,24.95
2016-10-16T15:07:11.198Z,24.97
2016-10-16T15:07:37.326Z,25.01
2016-10-16T15:08:03.546Z,24.97
2016-10-16T15:08:29.969Z,24.92
2016-10-16T15:08:55.536Z,25.01
2016-10-16T15:09:21.189Z,25.12
2016-10-16T15:09:46.761Z,25.12
2016-10-16T15:10:12.320Z,25.1
2016-10-16T15:10:37.915Z,25.1
2016-10-16T15:11:03.489Z,25.13
2016-10-16T15:11:29.189Z,25.1
2016-10-16T15:11:54.759Z,25.12
2016-10-16T15:12:20.317Z,25.12
2016-10-16T15:12:45.880Z,25.09
2016-10-16T15:13:11.448Z,25.12
2016-10-16T15:13:37.037Z,25.09
2016-10-16T15:14:02.658Z,25.19
2016-10-16T15:14:28.233Z,25.34
2016-10-16T15:14:53.836Z,25.35
2016-10-16T15:15:19.581Z,25.44
2016-10-16T15:16:07.488Z,25.53
2016-10-16T15:16:33.032Z,25.5
2016-10-16T15:16:58.595Z,25.62
2016-10-16T15:17:24.350Z,25.56
2016-10-16T15:17:49.909Z,25.57
2016-10-16T15:18:15.532Z,25.57
2016-10-16T15:18:41.125Z,25.59
2016-10-16T15:19:06.681Z,25.57
2016-10-16T15:19:59.655Z,25.47
2016-10-16T15:20:25.230Z,25.44
2016-10-16T15:20:50.933Z,25.52
2016-10-16T15:21:16.506Z,25.47
2016-10-16T15:21:42.066Z,25.46
2016-10-16T15:22:07.673Z,25.42
2016-10-16T15:22:33.239Z,25.46
2016-10-16T15:22:58.787Z,25.5
2016-10-16T15:23:24.374Z,25.49
2016-10-16T15:23:49.950Z,25.46
2016-10-16T15:24:15.554Z,25.46
2016-10-16T15:24:41.231Z,25.44
2016-10-16T15:25:06.806Z,25.38
2016-10-16T15:26:05.026Z,25.42
2016-10-16T15:26:30.583Z,25.42
2016-10-16T15:26:56.136Z,25.39
2016-10-16T15:28:04.659Z,25.31
2016-10-16T15:28:30.315Z,25.31
2016-10-16T15:28:55.893Z,25.39
2016-10-16T15:29:21.481Z,25.32
2016-10-16T15:29:47.045Z,25.37
2016-10-16T15:30:12.710Z,25.37
2016-10-16T15:30:38.318Z,25.31
2016-10-16T15:31:03.891Z,25.31
2016-10-16T15:31:29.468Z,25.35
2016-10-16T15:31:55.129Z,25.34
2016-10-16T15:32:20.713Z,25.34
2016-10-16T15:32:46.275Z,25.25
2016-10-16T15:33:11.861Z,25.32
2016-10-16T15:33:37.438Z,25.2
2016-10-16T15:34:02.986Z,25.22
2016-10-16T15:34:28.556Z,25.19
2016-10-16T15:34:54.340Z,25.22
2016-10-16T15:36:02.702Z,25.2
2016-10-16T15:36:28.259Z,25.19
2016-10-16T15:36:53.819Z,25.16
2016-10-16T15:37:19.385Z,25.17
2016-10-16T15:37:44.927Z,25.16
2016-10-16T15:38:10.543Z,25.17
2016-10-16T15:38:36.117Z,25.15
2016-10-16T15:39:01.685Z,25.24
2016-10-16T15:39:27.219Z,25.19
2016-10-16T15:39:53.010Z,25.17
2016-10-16T15:40:18.751Z,25.09
2016-10-16T15:40:44.365Z,25.1
2016-10-16T15:41:09.934Z,24.98
2016-10-16T15:41:35.506Z,25.01
2016-10-16T15:42:01.227Z,25.06
2016-10-16T15:42:26.786Z,25.07
2016-10-16T15:42:52.351Z,24.95
2016-10-16T15:43:18.119Z,24.95
2016-10-16T15:43:44.085Z,25
2016-10-16T15:44:09.660Z,25
2016-10-16T15:44:35.207Z,24.98
2016-10-16T15:45:00.781Z,24.97
2016-10-16T15:45:26.326Z,25.07
2016-10-16T15:45:51.913Z,25.05
2016-10-16T15:46:17.552Z,24.9
2016-10-16T15:46:43.242Z,25.01
2016-10-16T15:47:09.039Z,25.01
2016-10-16T15:47:34.653Z,24.92
2016-10-16T15:48:00.343Z,24.94
2016-10-16T15:48:25.965Z,25.01
2016-10-16T15:48:51.741Z,24.9
2016-10-16T15:49:18.679Z,24.97
2016-10-16T15:49:44.543Z,24.91
2016-10-16T15:50:10.110Z,24.95
2016-10-16T15:50:35.943Z,24.91
2016-10-16T15:51:01.612Z,24.91
2016-10-16T15:51:27.227Z,24.87
2016-10-16T15:51:53.049Z,24.92
2016-10-16T15:52:18.864Z,24.9
2016-10-16T15:52:44.859Z,24.92
2016-10-16T15:53:10.552Z,24.88
2016-10-16T15:53:36.790Z,24.91
2016-10-16T15:54:02.364Z,24.77
2016-10-16T15:54:28.722Z,24.85
2016-10-16T15:54:54.292Z,24.83
2016-10-16T15:55:19.876Z,24.79
2016-10-16T15:55:45.490Z,24.8
2016-10-16T15:56:11.081Z,24.77
2016-10-16T15:56:36.656Z,24.76
2016-10-16T15:57:02.205Z,24.76
2016-10-16T15:58:10.520Z,24.71
2016-10-16T15:59:03.506Z,24.61
2016-10-16T15:59:29.225Z,24.63
2016-10-16T15:59:55.183Z,24.64
2016-10-16T16:01:03.478Z,24.64
2016-10-16T16:01:29.122Z,24.71
2016-10-16T16:01:54.681Z,24.53
2016-10-16T16:02:20.243Z,24.61
2016-10-16T16:02:45.830Z,24.54
2016-10-16T16:03:11.428Z,24.52
2016-10-16T16:03:36.999Z,24.53
2016-10-16T16:04:02.569Z,24.5
2016-10-16T16:05:00.678Z,24.49
2016-10-16T16:05:26.330Z,24.59
2016-10-16T16:05:51.889Z,24.45
2016-10-16T16:06:17.483Z,24.56
2016-10-16T16:06:43.069Z,24.42
2016-10-16T16:07:08.626Z,24.34
2016-10-16T16:07:34.214Z,24.24
2016-10-16T16:07:59.836Z,24.23
2016-10-16T16:08:25.419Z,24.26
2016-10-16T16:08:50.981Z,24.14
2016-10-16T16:09:16.884Z,24.19
2016-10-16T16:09:42.387Z,24.16
2016-10-16T16:10:07.982Z,24.19
2016-10-16T16:11:06.520Z,24.17
2016-10-16T16:11:32.122Z,24.22
2016-10-16T16:11:57.656Z,24.23
2016-10-16T16:12:23.264Z,24.12
2016-10-16T16:12:48.896Z,24.16
2016-10-16T16:13:14.496Z,24.12
2016-10-16T16:13:40.107Z,24.13
2016-10-16T16:14:05.700Z,24.13
2016-10-16T16:14:31.263Z,24.12
2016-10-16T16:14:56.812Z,24.19
2016-10-16T16:15:22.372Z,24.13
2016-10-16T16:15:47.923Z,24.14
2016-10-16T16:16:13.516Z,24.13
2016-10-16T16:16:39.122Z,24.05
2016-10-16T16:17:04.706Z,24.07
2016-10-16T16:17:30.272Z,24.08
2016-10-16T16:17:55.912Z,24.04
2016-10-16T16:18:21.533Z,24.1
2016-10-16T16:18:47.116Z,24.02
2016-10-16T16:19:12.672Z,24.02
2016-10-16T16:19:38.267Z,23.98
2016-10-16T16:20:03.830Z,23.98
2016-10-16T16:20:29.436Z,23.95
2016-10-16T16:20:55.131Z,23.89
2016-10-16T16:21:20.741Z,23.98
2016-10-16T16:21:53.765Z,23.86
2016-10-16T16:22:19.567Z,23.86
2016-10-16T16:22:45.964Z,23.79
2016-10-16T16:23:10.889Z,23.79
2016-10-16T16:23:36.560Z,23.76
2016-10-16T16:24:02.162Z,23.79
2016-10-16T16:24:27.767Z,23.76
2016-10-16T16:24:53.599Z,23.71
2016-10-16T16:25:19.162Z,23.68
2016-10-16T16:25:45.433Z,23.7
2016-10-16T16:26:11.105Z,23.71
2016-10-16T16:26:36.752Z,23.64
2016-10-16T16:27:02.818Z,23.65
2016-10-16T16:27:28.426Z,23.65
2016-10-16T16:27:54.580Z,23.65
2016-10-16T16:28:20.144Z,23.62
2016-10-16T16:28:46.362Z,23.62
2016-10-16T16:29:11.970Z,23.57
2016-10-16T16:29:37.675Z,23.57
2016-10-16T16:30:03.703Z,23.53
2016-10-16T16:30:29.275Z,23.52
2016-10-16T16:30:55.595Z,23.55
2016-10-16T16:31:21.184Z,23.49
2016-10-16T16:31:46.818Z,23.47
2016-10-16T16:32:12.956Z,23.52
2016-10-16T16:32:38.572Z,23.47
2016-10-16T16:34:09.155Z,23.34
2016-10-16T16:34:35.107Z,23.38
2016-10-16T16:35:00.751Z,23.34
2016-10-16T16:35:26.442Z,23.4
2016-10-16T16:35:52.045Z,23.35
2016-10-16T16:36:18.460Z,23.35
2016-10-16T16:36:44.923Z,23.43
2016-10-16T16:37:10.929Z,23.39
2016-10-16T16:38:04.031Z,23.27
2016-10-16T16:38:29.608Z,23.23
2016-10-16T16:38:55.179Z,23.23
2016-10-16T16:39:20.712Z,23.22
2016-10-16T16:39:46.285Z,23.27
2016-10-16T16:40:11.845Z,23.29
2016-10-16T16:40:37.413Z,23.29
2016-10-16T16:41:03.083Z,23.29
2016-10-16T16:41:28.733Z,23.2
2016-10-16T16:41:54.383Z,23.27
2016-10-16T16:42:20.152Z,23.2
2016-10-16T16:42:45.855Z,23.23
2016-10-16T16:43:11.419Z,23.23
2016-10-16T16:43:37.035Z,23.12
2016-10-16T16:44:02.693Z,23.2
2016-10-16T16:44:28.316Z,23.2
2016-10-16T16:44:54.021Z,23.14
2016-10-16T16:45:19.838Z,23.15
2016-10-16T16:45:45.605Z,23.15
2016-10-16T16:46:11.224Z,23.11
2016-10-16T16:46:36.916Z,23.14
2016-10-16T16:47:02.536Z,23.15
2016-10-16T16:47:28.207Z,23.14
2016-10-16T16:47:53.773Z,23.12
2016-10-16T16:48:19.352Z,23.09
2016-10-16T16:48:44.988Z,23.11
2016-10-16T16:49:10.640Z,23.07
2016-10-16T16:49:36.208Z,23.05
2016-10-16T16:50:01.805Z,23.05
2016-10-16T16:50:27.344Z,23.02
2016-10-16T16:50:52.947Z,23.02
2016-10-16T16:51:18.545Z,23.04
2016-10-16T16:51:44.130Z,23.01
2016-10-16T16:52:09.661Z,23.04
2016-10-16T16:52:35.319Z,22.99
2016-10-16T16:53:00.940Z,23.01
2016-10-16T16:53:26.558Z,23.04
2016-10-16T16:53:52.263Z,23.02
2016-10-16T16:54:17.900Z,23.05
2016-10-16T16:54:43.458Z,23.02
2016-10-16T16:55:09.103Z,23.08
2016-10-16T16:55:34.629Z,22.99
2016-10-16T16:56:00.226Z,22.99
2016-10-16T16:56:25.902Z,22.97
2016-10-16T16:56:51.448Z,22.96
2016-10-16T16:57:17.036Z,23.01
2016-10-16T16:57:42.635Z,22.99
2016-10-16T16:58:08.249Z,22.94
2016-10-16T16:59:16.434Z,22.93
2016-10-16T16:59:42.084Z,22.9
2016-10-16T17:00:07.676Z,22.86
2016-10-16T17:00:33.343Z,22.9
2016-10-16T17:00:59.014Z,22.89
2016-10-16T17:01:24.604Z,22.89
2016-10-16T17:01:50.231Z,22.94
2016-10-16T17:02:16.165Z,22.93
2016-10-16T17:02:41.838Z,22.87
2016-10-16T17:03:07.484Z,22.92
2016-10-16T17:03:33.606Z,22.82
2016-10-16T17:03:59.343Z,22.86
2016-10-16T17:04:25.327Z,22.82
2016-10-16T17:04:51.104Z,22.78
2016-10-16T17:05:17.007Z,22.78
2016-10-16T17:05:42.597Z,22.8
2016-10-16T17:06:08.231Z,22.75
2016-10-16T17:06:34.436Z,22.78
2016-10-16T17:07:00.025Z,22.78
2016-10-16T17:07:26.233Z,22.78
2016-10-16T17:07:51.830Z,22.77
2016-10-16T17:08:17.504Z,22.75
2016-10-16T17:08:43.508Z,22.75
2016-10-16T17:09:09.454Z,22.8
2016-10-16T17:09:35.544Z,22.78
2016-10-16T17:10:01.130Z,22.75
2016-10-16T17:10:27.230Z,22.74
2016-10-16T17:10:52.825Z,22.75
2016-10-16T17:11:18.400Z,22.78
2016-10-16T17:11:44.426Z,22.78
2016-10-16T17:12:10.011Z,22.74
2016-10-16T17:12:36.427Z,22.71
2016-10-16T17:13:02.017Z,22.75
2016-10-16T17:13:27.576Z,22.64
2016-10-16T17:13:53.609Z,22.78
2016-10-16T17:14:19.215Z,22.68
2016-10-16T17:14:45.394Z,22.71
2016-10-16T17:15:11.219Z,22.68
2016-10-16T17:15:37.177Z,22.71
2016-10-16T17:16:02.830Z,22.68
2016-10-16T17:16:28.528Z,22.67
2016-10-16T17:16:54.522Z,22.72
2016-10-16T17:17:20.127Z,22.72
2016-10-16T17:17:46.387Z,22.68
2016-10-16T17:18:12.093Z,22.64
2016-10-16T17:18:37.694Z,22.68
2016-10-16T17:19:03.791Z,22.67
2016-10-16T17:19:29.361Z,22.68
2016-10-16T17:19:55.476Z,22.67
2016-10-16T17:20:21.062Z,22.62
2016-10-16T17:20:47.302Z,22.64
2016-10-16T17:21:12.881Z,22.6
2016-10-16T17:21:38.457Z,22.65
2016-10-16T17:22:04.649Z,22.62